This is the latest recevied weather packets stored in our database for station/object CE2LOH-10. If no packets are shown the sender has not sent any weather packets the latest 10 day(s).
| Time | Temp. | Humidity | Pressure | Rain* | Wind** | Luminosity | Snow |
|---|---|---|---|---|---|---|---|
| 1778364506 | 20.56° C | 41% | 991.7 hPa | - | - | - | - |
| 1778363606 | 20.56° C | 40% | 991.7 hPa | - | - | - | - |
| 1778362706 | 21.11° C | 41% | 991.6 hPa | - | - | - | - |
| 1778361806 | 21.67° C | 41% | 991.4 hPa | - | - | - | - |
| 1778360906 | 21.67° C | 41% | 991.4 hPa | - | - | - | - |
| 1778360006 | 21.67° C | 41% | 991.5 hPa | - | - | - | - |
| 1778359106 | 21.67° C | 40% | 991.6 hPa | - | - | - | - |
| 1778358206 | 21.67° C | 40% | 991.7 hPa | - | - | - | - |
| 1778357305 | 21.67° C | 41% | 991.8 hPa | - | - | - | - |
| 1778356405 | 21.67° C | 40% | 991.8 hPa | - | - | - | - |
| 1778355505 | 21.67° C | 41% | 991.9 hPa | - | - | - | - |
| 1778354605 | 21.11° C | 41% | 992 hPa | - | - | - | - |
| 1778353705 | 21.11° C | 41% | 992 hPa | - | - | - | - |
| 1778352805 | 21.11° C | 42% | 992.2 hPa | - | - | - | - |
| 1778351905 | 20.56° C | 42% | 992.3 hPa | - | - | - | - |
| 1778351004 | 20.56° C | 43% | 992.3 hPa | - | - | - | - |
| 1778350104 | 20° C | 42% | 992.5 hPa | - | - | - | - |
| 1778349204 | 20° C | 43% | 992.6 hPa | - | - | - | - |
| 1778348304 | 19.44° C | 44% | 992.7 hPa | - | - | - | - |
| 1778347404 | 18.89° C | 45% | 992.9 hPa | - | - | - | - |
| 1778346504 | 18.89° C | 46% | 993.1 hPa | - | - | - | - |
| 1778345604 | 18.33° C | 46% | 993.2 hPa | - | - | - | - |
| 1778344704 | 17.78° C | 47% | 993.4 hPa | - | - | - | - |
| 1778343803 | 17.78° C | 48% | 993.6 hPa | - | - | - | - |
| 1778342903 | 17.22° C | 49% | 993.7 hPa | - | - | - | - |
* Rain since midnight (hover to see other rain measurements)
** Current wind speed in m/s (hover to see current wind gust speed)